Time;durP1;ratioP1;P1;durP2;ratioP2;P2;SDS_P1;SDS_P2;PMS_P1;PMS_P2;Temp;Humidity;BMP_temperature;BMP_pressure;BME280_temperature;BME280_humidity;BME280_pressure;Samples;Min_cycle;Max_cycle;Signal;HPM_P1;HPM_P2
2022/12/03 00:00:56;;;;;;;23.80;10.20;;;3.90;99.90;;;;;;5109330;28;20053;-86
2022/12/03 00:03:21;;;;;;;25.48;12.50;;;3.90;99.90;;;;;;5108876;28;20074;-86
2022/12/03 00:05:47;;;;;;;24.60;12.10;;;3.90;99.90;;;;;;5109781;28;20758;-86
2022/12/03 00:08:12;;;;;;;28.77;11.77;;;3.90;99.90;;;;;;5108253;28;20043;-86
2022/12/03 00:10:38;;;;;;;26.17;12.68;;;4.00;99.90;;;;;;5092956;28;20044;-86
2022/12/03 00:13:03;;;;;;;29.52;13.43;;;4.00;99.90;;;;;;5109226;28;20035;-86
2022/12/03 00:15:29;;;;;;;21.60;10.45;;;4.00;99.90;;;;;;5091989;28;20578;-86
2022/12/03 00:17:54;;;;;;;26.85;12.77;;;4.00;99.90;;;;;;5089047;28;20036;-86
2022/12/03 00:20:22;;;;;;;25.95;13.65;;;4.00;99.90;;;;;;5081523;28;20039;-85
2022/12/03 00:22:48;;;;;;;27.30;12.23;;;4.00;99.90;;;;;;5109450;28;20493;-86
2022/12/03 00:25:14;;;;;;;23.13;11.45;;;4.00;99.90;;;;;;5092811;28;20431;-86
2022/12/03 00:27:40;;;;;;;27.75;12.00;;;4.00;99.90;;;;;;5108878;28;20043;-86
2022/12/03 00:30:06;;;;;;;24.30;11.90;;;4.00;99.90;;;;;;5092596;28;20535;-85
2022/12/03 00:32:32;;;;;;;25.65;12.20;;;4.00;99.90;;;;;;5108570;28;20042;-86
2022/12/03 00:34:58;;;;;;;29.35;13.65;;;4.00;99.90;;;;;;5091976;28;20028;-86
2022/12/03 00:37:23;;;;;;;25.20;12.23;;;4.00;99.90;;;;;;5109118;28;20506;-86
2022/12/03 00:39:49;;;;;;;27.55;13.35;;;4.00;99.90;;;;;;5108788;28;20074;-86
2022/12/03 00:42:14;;;;;;;29.65;13.63;;;4.00;99.90;;;;;;5092537;28;20051;-85
2022/12/03 00:44:40;;;;;;;28.08;13.45;;;4.00;99.90;;;;;;5092071;28;20055;-86
2022/12/03 00:47:06;;;;;;;27.33;12.30;;;4.00;99.90;;;;;;5091872;28;20092;-86
2022/12/03 00:49:31;;;;;;;30.98;13.70;;;4.10;99.90;;;;;;5109459;28;20035;-86
2022/12/03 00:51:57;;;;;;;27.95;13.63;;;4.00;99.90;;;;;;5091990;28;20040;-86
2022/12/03 00:54:22;;;;;;;29.92;13.90;;;4.10;99.90;;;;;;5092161;28;20070;-86
2022/12/03 00:56:48;;;;;;;28.33;12.98;;;4.00;99.90;;;;;;5108342;28;20039;-86
2022/12/03 00:59:13;;;;;;;26.38;12.68;;;4.10;99.90;;;;;;5113884;28;20596;-86
2022/12/03 01:01:39;;;;;;;25.40;12.63;;;4.00;99.90;;;;;;5095518;28;20031;-86
2022/12/03 01:04:04;;;;;;;28.20;12.95;;;4.10;99.90;;;;;;5095206;28;20044;-86
2022/12/03 01:06:30;;;;;;;27.83;13.23;;;4.10;99.90;;;;;;5096437;28;20515;-86
2022/12/03 01:08:56;;;;;;;27.63;12.80;;;4.10;99.90;;;;;;5112791;28;20046;-86
2022/12/03 01:11:36;;;;;;;25.92;12.95;;;4.10;99.90;;;;;;5113365;28;20052;-86
2022/12/03 01:14:06;;;;;;;24.88;11.50;;;4.10;99.90;;;;;;5111345;28;20031;-86
2022/12/03 01:16:32;;;;;;;23.30;11.82;;;4.10;99.90;;;;;;5095709;28;20043;-86
2022/12/03 01:18:57;;;;;;;23.98;12.30;;;4.10;99.90;;;;;;5111208;28;20043;-86
2022/12/03 01:21:23;;;;;;;25.20;11.98;;;4.20;99.90;;;;;;5112554;28;20409;-86
2022/12/03 01:23:48;;;;;;;25.75;12.57;;;4.20;99.90;;;;;;5094998;28;20039;-86
2022/12/03 01:26:14;;;;;;;25.75;13.02;;;4.20;99.90;;;;;;5094672;28;20031;-86
2022/12/03 01:28:40;;;;;;;27.77;13.27;;;4.20;99.90;;;;;;5095627;28;20089;-86
2022/12/03 01:33:51;;;;;;;24.25;12.88;;;4.20;99.90;;;;;;5118933;27;20044;-86
2022/12/03 01:36:17;;;;;;;28.58;13.07;;;4.20;99.90;;;;;;5074875;28;20055;-86
2022/12/03 01:38:42;;;;;;;26.08;12.82;;;4.30;99.90;;;;;;5101629;28;20054;-86
2022/12/03 01:41:08;;;;;;;25.02;12.70;;;4.30;99.90;;;;;;5112177;28;20454;-86
2022/12/03 01:43:34;;;;;;;27.13;12.52;;;4.30;99.90;;;;;;5094894;28;20043;-86
2022/12/03 01:46:00;;;;;;;25.95;12.38;;;4.30;99.90;;;;;;5094143;28;20087;-86
2022/12/03 01:48:26;;;;;;;24.63;12.40;;;4.30;99.90;;;;;;5095246;28;20040;-86
2022/12/03 01:50:52;;;;;;;26.45;13.15;;;4.30;99.90;;;;;;5112349;28;20134;-86
2022/12/03 01:53:18;;;;;;;28.52;13.35;;;4.30;99.90;;;;;;5112035;28;20190;-86
2022/12/03 01:55:44;;;;;;;27.92;14.77;;;4.30;99.90;;;;;;5112227;28;20050;-86
2022/12/03 01:58:13;;;;;;;27.42;12.80;;;4.30;99.90;;;;;;5110619;28;20043;-86
2022/12/03 02:00:39;;;;;;;26.95;13.85;;;4.30;99.90;;;;;;5112084;28;20050;-85
2022/12/03 02:03:11;;;;;;;27.20;13.18;;;4.30;99.90;;;;;;5110916;28;20044;-86
2022/12/03 02:05:37;;;;;;;28.25;12.95;;;4.30;99.90;;;;;;5111770;28;20122;-86
2022/12/03 02:08:32;;;;;;;25.55;13.45;;;4.30;99.90;;;;;;5111415;28;20046;-86
2022/12/03 02:11:03;;;;;;;29.02;13.88;;;4.30;99.90;;;;;;5083131;28;20097;-85
2022/12/03 02:13:28;;;;;;;29.55;13.55;;;4.30;99.90;;;;;;5094615;28;20028;-86
2022/12/03 02:15:54;;;;;;;26.52;14.95;;;4.30;99.90;;;;;;5110459;28;20035;-85
2022/12/03 02:18:20;;;;;;;27.38;13.73;;;4.30;99.90;;;;;;5094285;28;20085;-86
2022/12/03 02:21:00;;;;;;;27.08;14.10;;;4.40;99.90;;;;;;5093805;28;20043;-85
2022/12/03 02:23:49;;;;;;;28.63;14.23;;;4.30;99.90;;;;;;5111093;28;20504;-86
2022/12/03 02:26:15;;;;;;;25.90;13.38;;;4.30;99.90;;;;;;5110804;28;20040;-85
2022/12/03 02:28:41;;;;;;;23.65;11.93;;;4.30;99.90;;;;;;5091147;28;20050;-85
2022/12/03 02:31:06;;;;;;;24.27;12.63;;;4.30;99.90;;;;;;5094984;28;20057;-85
2022/12/03 02:33:32;;;;;;;25.13;11.95;;;4.30;99.90;;;;;;5111213;28;20466;-85
2022/12/03 02:35:58;;;;;;;23.05;12.63;;;4.30;99.90;;;;;;5083769;28;20047;-86
2022/12/03 02:38:27;;;;;;;25.48;12.20;;;4.30;99.90;;;;;;5093853;28;20031;-86
2022/12/03 02:40:58;;;;;;;22.90;11.95;;;4.30;99.90;;;;;;5104047;28;20055;-86
2022/12/03 02:43:24;;;;;;;25.27;12.73;;;4.30;99.90;;;;;;5101904;28;20522;-85
2022/12/03 02:45:53;;;;;;;25.48;13.57;;;4.30;99.90;;;;;;5111138;28;20043;-85
2022/12/03 02:48:32;;;;;;;25.35;12.40;;;4.30;99.90;;;;;;5110877;28;20035;-86
2022/12/03 02:51:02;;;;;;;23.67;11.95;;;4.30;99.90;;;;;;5094271;28;20043;-85
2022/12/03 02:53:32;;;;;;;21.23;11.50;;;4.30;99.90;;;;;;5110936;28;20035;-86
2022/12/03 02:56:01;;;;;;;24.50;12.48;;;4.20;99.90;;;;;;5109396;28;20043;-85
2022/12/03 02:58:30;;;;;;;21.95;11.35;;;4.20;99.90;;;;;;5110872;28;20040;-85
2022/12/03 03:00:57;;;;;;;24.73;13.23;;;4.20;99.90;;;;;;5092871;28;20404;-86
2022/12/03 03:03:25;;;;;;;22.95;11.52;;;4.20;99.90;;;;;;5093520;28;20039;-85
2022/12/03 03:05:51;;;;;;;23.65;11.88;;;4.20;99.90;;;;;;5114718;28;20018;-84
2022/12/03 03:08:17;;;;;;;24.65;12.07;;;4.20;99.90;;;;;;5108886;28;20047;-85
2022/12/03 03:10:45;;;;;;;27.40;13.07;;;4.20;99.90;;;;;;5109343;28;20046;-86
2022/12/03 03:13:13;;;;;;;24.17;12.40;;;4.20;99.90;;;;;;5108680;28;20039;-86
2022/12/03 03:15:39;;;;;;;24.30;12.40;;;4.20;99.90;;;;;;5116662;28;20083;-84
2022/12/03 03:18:06;;;;;;;25.90;13.05;;;4.20;99.90;;;;;;5117602;28;20040;-86
2022/12/03 03:20:33;;;;;;;22.35;11.27;;;4.20;99.90;;;;;;5081701;28;20028;-86
2022/12/03 03:23:15;;;;;;;26.23;11.85;;;4.20;99.90;;;;;;5072907;28;20047;-86
2022/12/03 03:26:04;;;;;;;23.40;11.93;;;4.20;99.90;;;;;;5091242;28;20107;-86
2022/12/03 03:28:31;;;;;;;24.25;11.30;;;4.20;99.90;;;;;;5093098;28;20400;-86
2022/12/03 03:30:59;;;;;;;22.33;11.65;;;4.10;99.90;;;;;;5102255;28;20065;-86
2022/12/03 03:33:25;;;;;;;22.73;11.75;;;4.10;99.90;;;;;;5092286;28;20031;-86
2022/12/03 03:35:51;;;;;;;24.33;11.05;;;4.10;99.90;;;;;;5110026;28;20039;-86
2022/12/03 03:38:19;;;;;;;26.30;12.07;;;4.10;99.90;;;;;;5109792;28;20039;-86
2022/12/03 03:40:45;;;;;;;25.02;13.30;;;4.10;99.90;;;;;;5109615;28;20100;-86
2022/12/03 03:43:12;;;;;;;22.85;11.57;;;4.10;99.90;;;;;;5108864;28;20040;-86
2022/12/03 03:45:37;;;;;;;26.52;13.57;;;4.10;99.90;;;;;;5093012;28;20039;-86
2022/12/03 03:48:04;;;;;;;27.20;13.27;;;4.10;99.90;;;;;;5089784;28;20031;-86
2022/12/03 03:50:30;;;;;;;25.27;13.55;;;4.10;99.90;;;;;;5087295;28;20442;-86
2022/12/03 03:52:58;;;;;;;25.05;13.27;;;4.10;99.90;;;;;;5110407;28;20388;-86
2022/12/03 03:55:24;;;;;;;25.73;12.57;;;4.10;99.90;;;;;;5080713;28;20036;-86
2022/12/03 03:57:49;;;;;;;26.55;12.32;;;4.10;99.90;;;;;;5089664;28;20094;-86
2022/12/03 04:00:16;;;;;;;28.35;14.68;;;4.10;99.90;;;;;;5086926;28;20106;-86
2022/12/03 04:02:42;;;;;;;25.92;13.18;;;4.20;99.90;;;;;;5109449;28;20042;-86
2022/12/03 04:05:16;;;;;;;25.00;12.45;;;4.20;99.90;;;;;;5108973;28;20126;-86
2022/12/03 04:07:42;;;;;;;24.30;13.40;;;4.10;99.90;;;;;;5109802;28;20047;-86
2022/12/03 04:12:56;;;;;;;26.13;13.05;;;4.10;99.90;;;;;;5109933;28;20043;-86
2022/12/03 04:15:22;;;;;;;24.33;12.95;;;4.10;99.90;;;;;;5092982;28;20028;-86
2022/12/03 04:20:49;;;;;;;24.48;12.65;;;4.10;99.90;;;;;;5031121;28;20045;-86
2022/12/03 04:23:15;;;;;;;20.48;11.10;;;4.10;99.90;;;;;;5086417;28;20047;-86
2022/12/03 04:36:57;;;;;;;25.83;13.85;;;4.10;99.90;;;;;;5076154;28;20048;-86
2022/12/03 04:39:23;;;;;;;24.85;13.63;;;4.10;99.90;;;;;;5096704;28;20560;-86
2022/12/03 04:41:48;;;;;;;24.08;12.25;;;4.10;99.90;;;;;;5096124;28;20036;-86
2022/12/03 04:44:32;;;;;;;25.42;12.38;;;4.10;99.90;;;;;;5095798;28;20035;-86
2022/12/03 04:47:10;;;;;;;23.23;11.57;;;4.10;99.90;;;;;;5095896;28;20074;-86
2022/12/03 04:49:39;;;;;;;27.17;12.75;;;4.10;99.90;;;;;;5113185;28;20404;-86
2022/12/03 04:52:05;;;;;;;26.05;12.45;;;4.10;99.90;;;;;;5112811;28;20076;-86
2022/12/03 04:54:31;;;;;;;28.45;13.57;;;4.10;99.90;;;;;;5096397;28;20039;-86
2022/12/03 04:56:56;;;;;;;24.10;12.77;;;4.00;99.90;;;;;;5112705;28;20027;-86
2022/12/03 04:59:22;;;;;;;22.83;11.95;;;4.00;99.90;;;;;;5094624;28;20433;-86
2022/12/03 05:02:04;;;;;;;26.08;13.63;;;4.10;99.90;;;;;;5050305;28;20101;-86
2022/12/03 05:04:30;;;;;;;27.90;14.65;;;4.10;99.90;;;;;;5095593;28;20681;-86
2022/12/03 05:06:56;;;;;;;26.45;13.07;;;4.10;99.90;;;;;;5095653;28;20039;-86
2022/12/03 05:09:22;;;;;;;25.13;12.85;;;4.10;99.90;;;;;;5081558;28;20036;-86
2022/12/03 05:11:47;;;;;;;25.23;12.98;;;4.10;99.90;;;;;;5093015;28;20047;-86
2022/12/03 05:14:13;;;;;;;22.88;11.82;;;4.00;99.90;;;;;;5099253;28;20028;-86
2022/12/03 05:16:38;;;;;;;31.15;14.95;;;4.10;99.90;;;;;;5095513;28;20522;-86
2022/12/03 05:19:05;;;;;;;24.63;12.93;;;4.00;99.90;;;;;;5095904;28;20047;-86
2022/12/03 05:21:31;;;;;;;24.20;12.27;;;4.10;99.90;;;;;;5108232;28;20042;-86
2022/12/03 05:23:57;;;;;;;25.23;12.68;;;4.10;99.90;;;;;;5112393;28;20118;-87
2022/12/03 05:26:22;;;;;;;28.02;13.23;;;4.00;99.90;;;;;;5104544;28;20108;-86
2022/12/03 05:28:48;;;;;;;24.30;12.13;;;4.00;99.90;;;;;;5112589;28;20488;-86
2022/12/03 05:31:14;;;;;;;25.92;14.07;;;4.00;99.90;;;;;;5113137;28;20042;-86
2022/12/03 05:33:39;;;;;;;29.02;14.55;;;4.00;99.90;;;;;;5093615;28;20034;-85
2022/12/03 05:36:05;;;;;;;25.15;12.70;;;4.00;99.90;;;;;;5112537;28;20047;-86
2022/12/03 05:38:30;;;;;;;24.83;12.88;;;4.00;99.90;;;;;;5092957;28;20118;-86
2022/12/03 05:40:56;;;;;;;30.00;13.73;;;4.00;99.90;;;;;;5108700;28;20044;-86
2022/12/03 05:43:22;;;;;;;24.95;13.38;;;4.00;99.90;;;;;;5111891;28;20043;-86
2022/12/03 05:45:47;;;;;;;24.48;12.40;;;4.00;99.90;;;;;;5108623;28;20520;-86
2022/12/03 05:48:15;;;;;;;26.00;12.75;;;4.00;99.90;;;;;;5111736;28;20047;-86
2022/12/03 05:50:45;;;;;;;25.02;13.90;;;4.00;99.90;;;;;;5091539;28;20493;-86
2022/12/03 05:53:11;;;;;;;26.25;13.40;;;4.00;99.90;;;;;;5092945;28;20044;-86
2022/12/03 05:55:37;;;;;;;26.00;13.52;;;4.00;99.90;;;;;;5094701;28;20073;-86
2022/12/03 05:58:03;;;;;;;27.63;14.38;;;3.90;99.90;;;;;;5091982;28;20078;-86
2022/12/03 06:00:31;;;;;;;24.92;13.00;;;3.90;99.90;;;;;;5092202;28;20039;-86
2022/12/03 06:02:57;;;;;;;31.20;15.38;;;3.90;99.90;;;;;;5087374;28;20044;-86
2022/12/03 06:05:24;;;;;;;28.33;13.57;;;3.90;99.90;;;;;;5106512;28;20070;-86
2022/12/03 06:07:51;;;;;;;29.73;13.45;;;3.90;99.90;;;;;;5110571;28;20454;-87
2022/12/03 06:10:22;;;;;;;29.10;14.70;;;3.90;99.90;;;;;;5095315;28;20051;-87
2022/12/03 06:12:48;;;;;;;28.20;15.00;;;3.90;99.90;;;;;;5090808;28;20068;-86
2022/12/03 06:15:14;;;;;;;28.35;15.77;;;3.90;99.90;;;;;;5092872;28;20078;-87
2022/12/03 06:17:40;;;;;;;31.17;15.93;;;3.90;99.90;;;;;;5094831;28;20035;-87
2022/12/03 06:20:07;;;;;;;32.08;15.30;;;3.90;99.90;;;;;;5110712;28;20516;-87
2022/12/03 06:22:33;;;;;;;30.33;15.55;;;3.90;99.90;;;;;;5087519;28;20040;-87
2022/12/03 06:24:59;;;;;;;32.97;16.77;;;3.90;99.90;;;;;;5094353;28;20039;-87
2022/12/03 06:27:24;;;;;;;33.22;16.15;;;3.90;99.90;;;;;;5093722;28;20040;-87
2022/12/03 06:29:50;;;;;;;32.70;15.63;;;3.80;99.90;;;;;;5109120;28;20035;-87
2022/12/03 06:32:15;;;;;;;30.42;16.77;;;3.80;99.90;;;;;;5094133;28;20084;-87
2022/12/03 06:34:41;;;;;;;32.72;16.35;;;3.80;99.90;;;;;;5092105;28;20089;-87
2022/12/03 06:37:07;;;;;;;31.27;14.85;;;3.80;99.90;;;;;;5074288;28;20040;-87
2022/12/03 06:39:32;;;;;;;30.58;14.52;;;3.80;99.90;;;;;;5076218;28;20404;-87
2022/12/03 06:41:58;;;;;;;30.15;14.93;;;3.80;99.90;;;;;;5094242;28;20123;-87
2022/12/03 06:44:23;;;;;;;32.03;14.70;;;3.70;99.90;;;;;;5110395;28;20480;-87
2022/12/03 06:46:49;;;;;;;31.38;15.73;;;3.70;99.90;;;;;;5110436;28;20395;-87
2022/12/03 06:49:14;;;;;;;28.80;15.00;;;3.70;99.90;;;;;;5110944;28;20035;-87
2022/12/03 06:51:40;;;;;;;28.52;14.98;;;3.60;99.90;;;;;;5102116;28;20040;-87
2022/12/03 06:54:06;;;;;;;34.72;15.32;;;3.60;99.90;;;;;;5110858;28;20092;-87
2022/12/03 06:56:32;;;;;;;29.58;14.52;;;3.60;99.90;;;;;;5110002;28;20059;-87
2022/12/03 06:58:58;;;;;;;31.27;15.50;;;3.60;99.90;;;;;;5090160;28;20516;-87
2022/12/03 07:01:23;;;;;;;33.75;15.68;;;3.60;99.90;;;;;;5110646;28;20043;-87
2022/12/03 07:03:49;;;;;;;32.53;16.60;;;3.60;99.90;;;;;;5098599;28;20042;-87
2022/12/03 07:06:14;;;;;;;31.38;14.63;;;3.50;99.90;;;;;;5106174;27;20051;-87
2022/12/03 07:08:40;;;;;;;29.58;14.07;;;3.50;99.90;;;;;;5097864;28;20040;-87
2022/12/03 07:11:29;;;;;;;28.15;14.65;;;3.50;99.90;;;;;;5110343;28;20050;-87
2022/12/03 07:13:55;;;;;;;26.25;13.27;;;3.50;99.90;;;;;;5110245;28;20075;-87
2022/12/03 07:16:20;;;;;;;28.75;14.13;;;3.50;99.90;;;;;;5102849;28;20093;-87
2022/12/03 07:18:46;;;;;;;33.67;15.98;;;3.50;99.90;;;;;;5093400;28;20505;-87
2022/12/03 07:21:12;;;;;;;28.92;14.32;;;3.50;99.90;;;;;;5109943;28;20130;-87
2022/12/03 07:23:37;;;;;;;31.83;15.57;;;3.50;99.90;;;;;;5102491;28;20417;-87
2022/12/03 07:26:03;;;;;;;28.52;14.13;;;3.40;99.90;;;;;;5110056;28;20496;-87
2022/12/03 07:28:28;;;;;;;27.77;13.25;;;3.40;99.90;;;;;;5095160;28;20484;-87
2022/12/03 07:30:54;;;;;;;28.08;14.27;;;3.40;99.90;;;;;;5072899;28;20032;-87
2022/12/03 07:33:19;;;;;;;28.83;14.93;;;3.40;99.90;;;;;;5091520;28;20465;-87
2022/12/03 07:35:45;;;;;;;33.67;15.93;;;3.40;99.90;;;;;;5119449;27;20093;-87
2022/12/03 07:38:10;;;;;;;34.10;15.95;;;3.40;99.90;;;;;;5091145;28;20050;-87
2022/12/03 07:40:36;;;;;;;29.48;14.35;;;3.30;99.90;;;;;;5105256;28;20050;-87
2022/12/03 07:43:02;;;;;;;30.85;14.73;;;3.30;99.90;;;;;;5109758;28;20054;-87
2022/12/03 07:45:27;;;;;;;28.92;14.07;;;3.30;99.90;;;;;;5104670;28;20447;-86
2022/12/03 07:47:53;;;;;;;32.05;14.68;;;3.30;99.90;;;;;;5108366;28;20039;-87
2022/12/03 07:50:18;;;;;;;30.15;15.05;;;3.30;99.90;;;;;;5092908;28;20130;-87
2022/12/03 07:52:44;;;;;;;30.75;15.40;;;3.30;99.90;;;;;;5107823;28;20036;-87
2022/12/03 07:55:10;;;;;;;33.05;15.23;;;3.30;99.90;;;;;;5109904;28;20404;-87
2022/12/03 07:57:36;;;;;;;31.77;17.23;;;3.30;99.90;;;;;;5090921;28;20052;-87
2022/12/03 08:00:04;;;;;;;32.13;17.10;;;3.30;99.90;;;;;;5109706;28;20122;-87
2022/12/03 08:02:30;;;;;;;31.77;15.80;;;3.20;99.90;;;;;;5104060;28;20036;-87
2022/12/03 08:04:55;;;;;;;31.52;16.23;;;3.20;99.90;;;;;;5108678;28;20096;-87
2022/12/03 08:07:21;;;;;;;33.17;15.00;;;3.20;99.90;;;;;;5112648;28;20032;-87
2022/12/03 08:09:46;;;;;;;33.15;15.00;;;3.20;99.90;;;;;;5108333;28;20135;-87
2022/12/03 08:12:38;;;;;;;33.17;15.23;;;3.20;99.90;;;;;;5096350;28;20035;-87
2022/12/03 08:15:08;;;;;;;28.92;14.55;;;3.20;99.90;;;;;;5107930;28;20063;-88
2022/12/03 08:17:35;;;;;;;30.95;15.52;;;3.20;99.90;;;;;;5114562;28;20407;-88
2022/12/03 08:20:04;;;;;;;29.90;14.52;;;3.20;99.90;;;;;;5096774;28;20524;-88
2022/12/03 08:22:30;;;;;;;35.58;15.98;;;3.20;99.90;;;;;;5089728;28;20040;-88
2022/12/03 08:24:57;;;;;;;33.40;15.80;;;3.20;99.90;;;;;;5113544;28;20130;-87
2022/12/03 08:27:23;;;;;;;31.00;15.10;;;3.10;99.90;;;;;;5110568;28;20035;-88
2022/12/03 08:29:49;;;;;;;30.48;15.82;;;3.10;99.90;;;;;;5110462;28;20096;-88
2022/12/03 08:32:14;;;;;;;32.40;15.05;;;3.10;99.90;;;;;;5096476;28;20071;-87
2022/12/03 08:34:43;;;;;;;31.80;15.60;;;3.10;99.90;;;;;;5109340;28;20489;-87
2022/12/03 08:37:18;;;;;;;30.15;14.18;;;3.10;99.90;;;;;;5096861;28;20088;-87
2022/12/03 08:39:47;;;;;;;31.35;14.73;;;3.10;99.90;;;;;;5091240;28;20035;-87
2022/12/03 08:45:28;;;;;;;29.88;14.23;;;3.10;99.90;;;;;;5113128;28;20045;-87
2022/12/03 08:48:13;;;;;;;31.45;15.82;;;3.10;99.90;;;;;;5122951;28;20051;-87
2022/12/03 08:50:41;;;;;;;32.78;15.77;;;3.10;99.90;;;;;;5116640;28;20039;-87
2022/12/03 08:53:12;;;;;;;31.00;15.05;;;3.10;99.90;;;;;;5119612;27;20040;-87
2022/12/03 08:55:44;;;;;;;37.15;17.05;;;3.10;99.90;;;;;;5077291;28;20048;-88
2022/12/03 08:58:36;;;;;;;35.30;16.07;;;3.10;99.90;;;;;;5097788;28;20043;-87
2022/12/03 09:01:34;;;;;;;34.88;16.50;;;3.10;99.90;;;;;;5094047;28;20093;-87
2022/12/03 09:04:22;;;;;;;30.75;15.73;;;3.10;99.90;;;;;;5069230;28;20063;-86
2022/12/03 09:06:48;;;;;;;31.40;16.13;;;3.20;99.90;;;;;;5120217;27;20098;-87
2022/12/03 09:09:14;;;;;;;30.38;16.15;;;3.20;99.90;;;;;;5097042;28;20118;-88
2022/12/03 09:11:42;;;;;;;35.88;16.65;;;3.20;99.90;;;;;;5095556;28;20544;-87
2022/12/03 09:14:08;;;;;;;32.08;15.77;;;3.20;99.90;;;;;;5112911;28;20043;-87
2022/12/03 09:16:34;;;;;;;36.70;15.23;;;3.20;99.90;;;;;;5095380;28;20502;-86
2022/12/03 09:19:00;;;;;;;32.53;15.82;;;3.30;99.90;;;;;;5110525;28;20134;-87
2022/12/03 09:21:25;;;;;;;34.17;17.10;;;3.30;99.90;;;;;;5094058;28;20039;-87
2022/12/03 09:23:51;;;;;;;35.55;17.98;;;3.30;99.90;;;;;;5093608;28;20382;-87
2022/12/03 09:26:16;;;;;;;35.58;17.48;;;3.30;99.90;;;;;;5112705;28;20028;-87
2022/12/03 09:28:42;;;;;;;33.55;16.50;;;3.30;99.90;;;;;;5112454;28;20520;-86
2022/12/03 09:31:07;;;;;;;30.50;14.82;;;3.30;99.90;;;;;;5112351;28;20499;-87
2022/12/03 09:33:33;;;;;;;34.10;16.30;;;3.30;99.90;;;;;;5091962;28;20028;-87
2022/12/03 09:35:59;;;;;;;33.00;15.02;;;3.30;99.90;;;;;;5075587;28;20036;-86
2022/12/03 09:38:25;;;;;;;32.28;16.42;;;3.30;99.90;;;;;;5075015;28;20044;-86
2022/12/03 09:40:51;;;;;;;32.80;15.77;;;3.30;99.90;;;;;;5111832;28;20046;-86
2022/12/03 09:43:17;;;;;;;36.78;17.58;;;3.30;99.90;;;;;;5094809;28;20040;-87
2022/12/03 09:45:47;;;;;;;35.47;16.35;;;3.30;99.90;;;;;;5111861;28;20875;-87
2022/12/03 09:48:16;;;;;;;36.22;15.98;;;3.30;99.90;;;;;;5112202;28;20036;-87
2022/12/03 09:50:43;;;;;;;34.63;17.23;;;3.30;99.90;;;;;;5091038;28;20392;-87
2022/12/03 09:53:14;;;;;;;35.83;17.80;;;3.30;99.90;;;;;;5073561;28;20501;-87
2022/12/03 09:55:42;;;;;;;40.80;18.52;;;3.30;99.90;;;;;;5076698;28;20047;-87
2022/12/03 09:58:13;;;;;;;34.03;17.65;;;3.30;99.90;;;;;;5075677;28;20166;-87
2022/12/03 10:00:39;;;;;;;37.22;17.02;;;3.30;99.90;;;;;;5091007;28;20039;-87
2022/12/03 10:03:06;;;;;;;36.42;17.40;;;3.30;99.90;;;;;;5127235;27;20036;-87
2022/12/03 10:05:33;;;;;;;36.90;18.08;;;3.40;99.90;;;;;;5111885;28;20500;-87
2022/12/03 10:08:11;;;;;;;35.25;16.38;;;3.30;99.90;;;;;;5094458;28;20044;-87
2022/12/03 10:10:39;;;;;;;38.83;16.75;;;3.30;99.90;;;;;;5099630;28;20550;-87
2022/12/03 10:13:06;;;;;;;38.47;18.70;;;3.30;99.90;;;;;;5091224;28;20073;-87
2022/12/03 10:15:32;;;;;;;34.78;18.02;;;3.30;99.90;;;;;;5090824;28;20090;-87
2022/12/03 10:18:00;;;;;;;39.22;18.42;;;3.20;99.90;;;;;;5091340;28;20044;-87
2022/12/03 10:20:25;;;;;;;35.13;19.02;;;3.20;99.90;;;;;;5074077;28;20075;-88
2022/12/03 10:22:51;;;;;;;40.15;18.80;;;3.20;99.90;;;;;;5098605;28;20074;-87
2022/12/03 10:25:20;;;;;;;38.03;17.48;;;3.30;99.90;;;;;;5074443;28;20493;-86
2022/12/03 10:27:58;;;;;;;34.05;16.33;;;3.30;99.90;;;;;;5089941;28;20458;-87
2022/12/03 10:30:27;;;;;;;39.00;18.98;;;3.20;99.90;;;;;;5093780;28;20419;-87
2022/12/03 10:32:54;;;;;;;41.05;18.77;;;3.30;99.90;;;;;;5093362;28;20055;-87
2022/12/03 10:35:23;;;;;;;39.90;19.30;;;3.30;99.90;;;;;;5094283;28;20043;-87
2022/12/03 10:37:59;;;;;;;35.88;18.15;;;3.30;99.90;;;;;;5111283;28;20519;-87
2022/12/03 10:40:38;;;;;;;42.70;18.77;;;3.30;99.90;;;;;;5093392;28;20047;-87
2022/12/03 10:43:16;;;;;;;38.35;18.20;;;3.30;99.90;;;;;;5093660;28;20031;-87
2022/12/03 10:45:44;;;;;;;38.50;18.02;;;3.40;99.90;;;;;;5093274;28;20102;-88
2022/12/03 10:48:24;;;;;;;32.95;17.23;;;3.40;99.90;;;;;;5110747;28;20039;-87
2022/12/03 10:51:02;;;;;;;39.92;17.65;;;3.40;99.90;;;;;;5093498;28;20063;-87
2022/12/03 10:53:30;;;;;;;33.08;15.65;;;3.50;99.90;;;;;;5109806;28;20061;-87
2022/12/03 10:55:58;;;;;;;39.15;17.20;;;3.50;99.90;;;;;;5110723;28;20735;-87
2022/12/03 10:58:26;;;;;;;32.35;16.35;;;3.60;99.90;;;;;;5093548;28;20551;-87
2022/12/03 11:00:54;;;;;;;36.10;16.70;;;3.60;99.90;;;;;;5110310;28;20065;-87
2022/12/03 11:03:25;;;;;;;36.20;17.42;;;3.70;99.90;;;;;;5109442;28;20505;-87
2022/12/03 11:05:52;;;;;;;41.70;16.45;;;3.80;99.90;;;;;;5110260;28;20489;-87
2022/12/03 11:08:21;;;;;;;40.53;19.10;;;3.80;99.90;;;;;;5092801;28;20518;-87
2022/12/03 11:11:02;;;;;;;38.55;18.13;;;3.90;99.90;;;;;;5109752;28;20035;-87
2022/12/03 11:13:48;;;;;;;35.95;17.33;;;3.80;99.90;;;;;;5109833;28;20036;-87
2022/12/03 11:16:33;;;;;;;36.97;17.08;;;3.80;99.90;;;;;;5092246;28;20031;-87
2022/12/03 11:19:01;;;;;;;39.13;17.10;;;3.80;99.90;;;;;;5093262;28;20050;-87
2022/12/03 11:21:27;;;;;;;33.25;17.27;;;3.80;99.90;;;;;;5092955;28;20043;-87
2022/12/03 11:23:52;;;;;;;35.78;18.23;;;3.90;99.90;;;;;;5109115;28;20032;-87
2022/12/03 11:26:38;;;;;;;33.38;17.00;;;3.90;99.90;;;;;;5110123;28;20564;-87
2022/12/03 11:29:13;;;;;;;35.33;17.33;;;3.80;99.90;;;;;;5108315;28;20039;-86
2022/12/03 11:31:45;;;;;;;38.35;18.13;;;3.80;99.90;;;;;;5110093;28;20047;-88
2022/12/03 11:34:19;;;;;;;32.73;16.33;;;3.80;99.90;;;;;;5101310;28;20035;-87
2022/12/03 11:37:10;;;;;;;35.90;17.38;;;3.90;99.90;;;;;;5109995;28;20036;-87
2022/12/03 11:39:51;;;;;;;36.47;18.67;;;4.00;99.90;;;;;;5093146;28;20044;-87
2022/12/03 11:42:25;;;;;;;34.47;16.42;;;4.20;99.90;;;;;;5094956;28;20074;-87
2022/12/03 11:45:17;;;;;;;31.45;15.43;;;4.40;99.90;;;;;;5092863;28;20126;-87
2022/12/03 11:47:46;;;;;;;38.42;16.80;;;4.60;99.90;;;;;;5070968;28;20465;-88
2022/12/03 11:50:27;;;;;;;32.88;16.17;;;4.60;99.90;;;;;;5093556;28;20054;-88
2022/12/03 11:53:21;;;;;;;31.85;16.85;;;4.60;99.90;;;;;;5091667;28;20040;-87
2022/12/03 11:56:05;;;;;;;31.83;15.80;;;4.50;99.90;;;;;;5093318;28;20046;-87
2022/12/03 11:58:31;;;;;;;32.67;16.25;;;4.40;99.90;;;;;;5091896;28;20051;-87
2022/12/03 12:00:59;;;;;;;29.40;14.38;;;4.20;99.90;;;;;;5109778;28;20118;-87
2022/12/03 12:03:29;;;;;;;32.60;15.85;;;4.10;99.90;;;;;;5073234;28;20039;-87
2022/12/03 12:06:08;;;;;;;34.15;16.23;;;4.00;99.90;;;;;;5094758;28;20104;-88
2022/12/03 12:08:54;;;;;;;31.40;15.77;;;3.80;99.90;;;;;;5092510;28;20399;-87
2022/12/03 12:11:25;;;;;;;34.47;15.90;;;3.70;99.90;;;;;;5093047;28;20512;-87
2022/12/03 12:13:53;;;;;;;34.08;16.60;;;3.70;99.90;;;;;;5108513;28;20039;-87
2022/12/03 12:16:51;;;;;;;30.63;15.95;;;3.60;99.90;;;;;;5109430;28;20039;-87
2022/12/03 12:19:37;;;;;;;32.13;15.85;;;3.60;99.90;;;;;;5109484;28;20082;-87
2022/12/03 12:22:39;;;;;;;32.75;16.95;;;3.60;99.90;;;;;;5108893;28;20054;-87
2022/12/03 12:25:40;;;;;;;36.55;16.38;;;3.60;99.90;;;;;;5087393;28;20044;-87
2022/12/03 12:28:06;;;;;;;32.15;15.85;;;3.60;99.90;;;;;;5109450;28;20039;-87
2022/12/03 12:30:32;;;;;;;31.90;15.30;;;3.70;99.90;;;;;;5110051;28;20028;-87
2022/12/03 12:33:19;;;;;;;36.70;16.83;;;3.80;99.90;;;;;;5092828;28;20046;-87
2022/12/03 12:35:45;;;;;;;32.35;15.75;;;3.90;99.90;;;;;;5090840;28;20378;-88
2022/12/03 12:38:15;;;;;;;30.67;16.67;;;4.00;99.90;;;;;;5092598;28;20078;-87
2022/12/03 12:40:44;;;;;;;33.95;17.58;;;4.10;99.90;;;;;;5108901;28;20031;-87
2022/12/03 12:43:09;;;;;;;33.30;16.52;;;4.10;99.90;;;;;;5108660;28;20047;-88
2022/12/03 12:45:38;;;;;;;32.85;16.20;;;4.10;99.90;;;;;;5109514;28;20035;-88
2022/12/03 12:48:24;;;;;;;34.85;17.65;;;4.00;99.90;;;;;;5108613;28;20036;-88
2022/12/03 12:51:12;;;;;;;34.33;17.27;;;4.00;99.90;;;;;;5092825;28;20118;-87
2022/12/03 12:53:41;;;;;;;30.40;15.98;;;3.90;99.90;;;;;;5109289;28;20036;-87
2022/12/03 12:56:22;;;;;;;34.30;17.98;;;3.90;99.90;;;;;;5113156;28;20047;-87
2022/12/03 12:58:48;;;;;;;34.30;17.15;;;3.80;99.90;;;;;;5112365;28;20118;-87
2022/12/03 13:01:25;;;;;;;34.22;16.85;;;3.80;99.90;;;;;;5112966;28;20130;-87
2022/12/03 13:03:51;;;;;;;33.85;15.90;;;3.80;99.90;;;;;;5094732;28;20044;-88
2022/12/03 13:06:22;;;;;;;31.05;15.95;;;3.70;99.90;;;;;;5104681;28;20035;-87
2022/12/03 13:08:49;;;;;;;37.30;16.83;;;3.70;99.90;;;;;;5112384;28;20096;-87